Terminal Aerodrome Forecast
Issued by NWS

Home | Current Version | Previous Version | Text Only | Print | Product List | Glossary On
Versions: 1 2 3 4 5 6 7 8 9 10 11 12 13 14 15 16 17
000
FTUS41 KPHI 250533
TAFMIV
TAF
KMIV 250533Z 2506/2606 VRB03KT P6SM SCT030
      TEMPO 2508/2511 4SM BR SCT006 BKN015
     FM251100 15005KT 2SM BR OVC006
     FM251400 17008KT P6SM BKN020
     FM251600 17010G18KT P6SM BKN035
      TEMPO 2522/2524 27016G30KT 3SM TSRA OVC020CB
     FM260000 30010G18KT P6SM VCSH OVC050
     FM260200 29012G20KT P6SM SCT040=

USA.gov is the U.S. government's official web portal to all federal, state and local government web resources and services.